createdAt,value
2023-05-19T00:01:57.056Z,14.29
2023-05-19T00:04:32.096Z,14.29
2023-05-19T00:07:08.650Z,14.28
2023-05-19T00:09:43.364Z,14.30
2023-05-19T00:12:19.522Z,14.32
2023-05-19T00:14:54.433Z,14.33
2023-05-19T00:17:28.823Z,14.33
2023-05-19T00:20:08.196Z,14.33
2023-05-19T00:22:44.444Z,14.34
2023-05-19T00:25:18.356Z,14.36
2023-05-19T00:27:52.183Z,14.37
2023-05-19T00:30:26.101Z,14.39
2023-05-19T00:32:59.975Z,14.38
2023-05-19T00:35:33.691Z,14.37
2023-05-19T00:38:07.481Z,14.37
2023-05-19T00:40:41.466Z,14.36
2023-05-19T00:43:16.040Z,14.34
2023-05-19T00:45:50.104Z,14.29
2023-05-19T00:48:23.698Z,14.25
2023-05-19T00:51:02.719Z,14.21
2023-05-19T00:53:37.568Z,14.16
2023-05-19T00:56:11.528Z,14.14
2023-05-19T00:58:45.654Z,14.13
2023-05-19T01:01:21.831Z,14.14
2023-05-19T01:03:59.554Z,14.14
2023-05-19T01:06:33.992Z,14.13
2023-05-19T01:09:08.003Z,14.12
2023-05-19T01:11:41.630Z,14.11
2023-05-19T01:14:16.111Z,14.09
2023-05-19T01:16:56.953Z,14.06
2023-05-19T01:19:53.119Z,14.05
2023-05-19T01:22:55.687Z,14.06
2023-05-19T01:25:54.288Z,14.08
2023-05-19T01:28:33.666Z,14.08
2023-05-19T01:31:09.109Z,14.06
2023-05-19T01:33:45.109Z,14.05
2023-05-19T01:36:20.908Z,14.04
2023-05-19T01:38:57.710Z,14.02
2023-05-19T01:41:32.971Z,13.98
2023-05-19T01:44:07.000Z,13.97
2023-05-19T01:46:41.467Z,13.96
2023-05-19T01:49:15.254Z,13.96
2023-05-19T01:51:52.446Z,13.97
2023-05-19T01:54:26.475Z,13.97
2023-05-19T01:57:07.577Z,13.97
2023-05-19T01:59:54.156Z,13.95
2023-05-19T02:02:45.111Z,13.94
2023-05-19T02:05:30.217Z,13.94
2023-05-19T02:08:13.511Z,13.93
2023-05-19T02:10:53.663Z,13.94
2023-05-19T02:13:31.258Z,13.95
2023-05-19T02:16:07.688Z,13.96
2023-05-19T02:18:46.185Z,13.96
2023-05-19T02:21:19.976Z,13.96
2023-05-19T02:23:54.422Z,13.96
2023-05-19T02:26:27.940Z,13.96
2023-05-19T02:29:01.965Z,13.95
2023-05-19T02:31:35.443Z,13.93
2023-05-19T02:34:09.169Z,13.90
2023-05-19T02:36:44.759Z,13.91
2023-05-19T02:39:19.153Z,13.91
2023-05-19T02:41:54.210Z,13.93
2023-05-19T02:44:28.016Z,13.93
2023-05-19T02:47:02.266Z,13.93
2023-05-19T02:49:36.655Z,13.94
2023-05-19T02:52:10.666Z,13.94
2023-05-19T02:54:44.736Z,13.94
2023-05-19T02:57:18.581Z,13.94
2023-05-19T02:59:52.775Z,13.94
2023-05-19T03:02:26.590Z,13.95
2023-05-19T03:05:05.707Z,13.95
2023-05-19T03:07:39.412Z,13.95
2023-05-19T03:10:14.100Z,13.94
2023-05-19T03:12:47.823Z,13.92
2023-05-19T03:15:23.615Z,13.90
2023-05-19T03:17:57.445Z,13.90
2023-05-19T03:20:32.313Z,13.90
2023-05-19T03:23:05.760Z,13.90
2023-05-19T03:25:39.766Z,13.89
2023-05-19T03:28:13.210Z,13.88
2023-05-19T03:30:49.610Z,13.90
2023-05-19T03:33:28.412Z,13.94
2023-05-19T03:36:02.678Z,13.97
2023-05-19T03:38:38.900Z,14.00
2023-05-19T03:41:12.750Z,14.02
2023-05-19T03:43:46.816Z,14.03
2023-05-19T03:46:21.596Z,14.04
2023-05-19T03:48:58.932Z,14.05
2023-05-19T03:52:03.758Z,14.07
2023-05-19T03:54:43.099Z,14.09
2023-05-19T03:57:17.040Z,14.11
2023-05-19T03:59:50.576Z,14.11
2023-05-19T04:02:24.286Z,14.09
2023-05-19T04:04:58.325Z,14.05
2023-05-19T04:07:31.997Z,14.00
2023-05-19T04:10:08.367Z,13.98
2023-05-19T04:12:42.470Z,13.97
2023-05-19T04:15:16.577Z,13.97
2023-05-19T04:17:50.447Z,13.99
2023-05-19T04:20:25.298Z,13.99
2023-05-19T04:22:59.152Z,13.96
2023-05-19T04:25:33.954Z,13.96
2023-05-19T04:28:08.098Z,13.92
2023-05-19T04:30:42.993Z,13.91
2023-05-19T04:33:16.845Z,13.91
2023-05-19T04:35:52.053Z,13.93
2023-05-19T04:38:26.481Z,13.96
2023-05-19T04:41:02.202Z,13.94
2023-05-19T04:43:36.155Z,13.90
2023-05-19T04:46:13.252Z,13.89
2023-05-19T04:48:48.026Z,13.92
2023-05-19T04:51:21.809Z,13.95
2023-05-19T04:53:56.048Z,13.99
2023-05-19T04:56:30.389Z,13.98
2023-05-19T04:59:04.091Z,13.99
2023-05-19T05:01:41.497Z,13.96
2023-05-19T05:04:15.548Z,13.96
2023-05-19T05:06:49.253Z,13.95
2023-05-19T05:09:24.738Z,13.90
2023-05-19T05:12:00.040Z,13.88
2023-05-19T05:14:35.288Z,13.86
2023-05-19T05:17:12.399Z,13.87
2023-05-19T05:19:47.428Z,13.85
2023-05-19T05:22:22.555Z,13.87
2023-05-19T05:24:57.779Z,13.92
2023-05-19T05:27:31.646Z,13.93
2023-05-19T05:30:05.890Z,13.93
2023-05-19T05:32:39.876Z,13.96
2023-05-19T05:35:16.670Z,13.95
2023-05-19T05:37:51.281Z,13.92
2023-05-19T05:40:25.323Z,13.94
2023-05-19T05:42:59.787Z,13.95
2023-05-19T05:45:35.936Z,13.95
2023-05-19T05:48:12.420Z,13.99
2023-05-19T05:50:47.197Z,14.06
2023-05-19T05:53:27.023Z,14.15
2023-05-19T05:56:02.308Z,14.22
2023-05-19T05:58:44.368Z,14.28
2023-05-19T06:01:18.296Z,14.34
2023-05-19T06:04:03.909Z,14.37
2023-05-19T06:06:39.373Z,14.38
2023-05-19T06:09:13.333Z,14.43
2023-05-19T06:11:46.875Z,14.46
2023-05-19T06:14:20.721Z,14.46
2023-05-19T06:17:11.917Z,14.43
2023-05-19T06:19:48.142Z,14.38
2023-05-19T06:22:22.371Z,14.36
2023-05-19T06:25:00.170Z,14.32
2023-05-19T06:27:34.813Z,14.33
2023-05-19T06:30:11.363Z,14.35
2023-05-19T06:32:54.128Z,14.41
2023-05-19T06:35:28.417Z,14.43
2023-05-19T06:38:02.160Z,14.44
2023-05-19T06:40:37.301Z,14.47
2023-05-19T06:43:11.043Z,14.50
2023-05-19T06:46:00.500Z,14.56
2023-05-19T06:48:35.850Z,14.58
2023-05-19T06:51:11.069Z,14.59
2023-05-19T06:53:49.027Z,14.60
2023-05-19T06:57:12.094Z,14.61
2023-05-19T07:00:14.621Z,14.63
2023-05-19T07:03:09.114Z,14.66
2023-05-19T07:05:50.130Z,14.68
2023-05-19T07:09:02.832Z,14.67
2023-05-19T07:12:12.867Z,14.66
2023-05-19T07:15:22.826Z,14.68
2023-05-19T07:18:17.945Z,14.72
2023-05-19T07:21:24.534Z,14.75
2023-05-19T07:24:51.165Z,14.78
2023-05-19T07:27:25.702Z,14.82
2023-05-19T07:29:59.930Z,14.83
2023-05-19T07:32:33.909Z,14.82
2023-05-19T07:35:08.525Z,14.77
2023-05-19T07:37:42.409Z,14.78
2023-05-19T07:40:16.975Z,14.85
2023-05-19T07:42:51.849Z,14.90
2023-05-19T07:45:26.264Z,14.92
2023-05-19T07:48:00.293Z,14.90
2023-05-19T07:50:34.554Z,14.92
2023-05-19T07:53:08.276Z,14.96
2023-05-19T07:55:41.990Z,14.99
2023-05-19T07:58:16.036Z,15.04
2023-05-19T08:00:49.920Z,15.09
2023-05-19T08:03:24.316Z,15.09
2023-05-19T08:05:58.368Z,15.06
2023-05-19T08:08:33.817Z,15.04
2023-05-19T08:11:08.367Z,15.03
2023-05-19T08:13:42.864Z,15.04
2023-05-19T08:16:16.700Z,15.04
2023-05-19T08:18:50.570Z,15.04
2023-05-19T08:21:24.209Z,15.03
2023-05-19T08:23:58.276Z,15.01
2023-05-19T08:26:32.061Z,14.97
2023-05-19T08:29:05.927Z,14.92
2023-05-19T08:31:39.811Z,14.90
2023-05-19T08:34:13.507Z,14.89
2023-05-19T08:36:48.089Z,14.89
2023-05-19T08:39:27.333Z,14.91
2023-05-19T08:42:00.931Z,14.92
2023-05-19T08:44:35.045Z,14.92
2023-05-19T08:47:14.434Z,14.94
2023-05-19T08:49:54.419Z,15.00
2023-05-19T08:52:34.729Z,15.03
2023-05-19T08:55:17.978Z,15.06
2023-05-19T08:57:52.860Z,15.10
2023-05-19T09:00:27.398Z,15.12
2023-05-19T09:05:40.556Z,15.19
2023-05-19T09:08:15.121Z,15.21
2023-05-19T09:10:49.185Z,15.24
2023-05-19T09:13:23.097Z,15.27
2023-05-19T09:15:58.079Z,15.29
2023-05-19T09:18:32.227Z,15.29
2023-05-19T09:21:06.313Z,15.30
2023-05-19T09:23:41.027Z,15.36
2023-05-19T09:26:16.914Z,15.43
2023-05-19T09:28:50.993Z,15.50
2023-05-19T09:31:24.592Z,15.50
2023-05-19T09:33:58.323Z,15.51
2023-05-19T09:36:32.897Z,15.51
2023-05-19T09:39:16.972Z,15.52
2023-05-19T09:41:53.173Z,15.56
2023-05-19T09:44:29.950Z,15.61
2023-05-19T09:47:03.903Z,15.68
2023-05-19T09:49:37.631Z,15.73
2023-05-19T09:52:12.713Z,15.75
2023-05-19T09:54:48.795Z,15.76
2023-05-19T09:57:30.096Z,15.74
2023-05-19T10:00:04.394Z,15.72
2023-05-19T10:02:38.662Z,15.74
2023-05-19T10:05:17.645Z,15.74
2023-05-19T10:07:54.872Z,15.76
2023-05-19T10:10:30.394Z,15.77
2023-05-19T10:13:05.863Z,15.76
2023-05-19T10:15:50.063Z,15.79
2023-05-19T10:18:32.684Z,15.86
2023-05-19T10:21:07.926Z,15.89
2023-05-19T10:23:42.332Z,15.92
2023-05-19T10:26:17.074Z,15.95
2023-05-19T10:28:52.343Z,16.05
2023-05-19T10:31:27.583Z,16.18
2023-05-19T10:34:26.024Z,16.29
2023-05-19T10:37:10.585Z,16.40
2023-05-19T10:39:46.000Z,16.49
2023-05-19T10:42:28.274Z,16.52
2023-05-19T10:45:15.321Z,16.55
2023-05-19T10:47:52.082Z,16.63
2023-05-19T10:50:25.934Z,16.74
2023-05-19T10:53:00.553Z,16.84
2023-05-19T10:55:53.225Z,16.91
2023-05-19T10:58:52.613Z,16.95
2023-05-19T11:01:32.546Z,16.96
2023-05-19T11:04:14.391Z,16.96
2023-05-19T11:06:54.380Z,16.98
2023-05-19T11:09:37.983Z,17.02
2023-05-19T11:12:14.752Z,17.09
2023-05-19T11:14:48.917Z,17.15
2023-05-19T11:17:24.146Z,17.14
2023-05-19T11:19:59.713Z,17.18
2023-05-19T11:22:36.337Z,17.21
2023-05-19T11:25:11.163Z,17.23
2023-05-19T11:27:48.343Z,17.24
2023-05-19T11:30:22.278Z,17.27
2023-05-19T11:32:58.343Z,17.31
2023-05-19T11:35:36.284Z,17.33
2023-05-19T11:38:10.511Z,17.34
2023-05-19T11:40:45.862Z,17.38
2023-05-19T11:43:19.855Z,17.41
2023-05-19T11:45:55.224Z,17.43
2023-05-19T11:48:31.610Z,17.48
2023-05-19T11:51:05.865Z,17.51
2023-05-19T11:53:39.337Z,17.52
2023-05-19T11:56:15.548Z,17.44
2023-05-19T11:58:49.598Z,17.42
2023-05-19T12:01:27.498Z,17.46
2023-05-19T12:04:01.344Z,17.51
2023-05-19T12:06:35.841Z,17.51
2023-05-19T12:09:11.410Z,17.53
2023-05-19T12:11:45.265Z,17.55
2023-05-19T12:14:19.168Z,17.59
2023-05-19T12:16:53.263Z,17.57
2023-05-19T12:19:28.252Z,17.55
2023-05-19T12:22:03.477Z,17.55
2023-05-19T12:24:39.040Z,17.57
2023-05-19T12:27:20.779Z,17.57
2023-05-19T12:29:55.603Z,17.56
2023-05-19T12:32:30.351Z,17.56
2023-05-19T12:35:06.641Z,17.57
2023-05-19T12:37:43.267Z,17.58
2023-05-19T12:40:18.819Z,17.56
2023-05-19T12:42:59.227Z,17.54
2023-05-19T12:45:38.881Z,17.53
2023-05-19T12:48:17.433Z,17.49
2023-05-19T12:50:53.585Z,17.52
2023-05-19T12:53:29.997Z,17.56
2023-05-19T12:56:03.872Z,17.55
2023-05-19T12:58:39.352Z,17.54
2023-05-19T13:01:20.640Z,17.57
2023-05-19T13:03:55.121Z,17.60
2023-05-19T13:06:29.593Z,17.60
2023-05-19T13:09:03.571Z,17.60
2023-05-19T13:11:36.918Z,17.59
2023-05-19T13:14:10.871Z,17.58
2023-05-19T13:16:44.602Z,17.58
2023-05-19T13:21:57.832Z,17.56
2023-05-19T13:24:31.461Z,17.57
2023-05-19T13:27:06.057Z,17.54
2023-05-19T13:29:39.878Z,17.50
2023-05-19T13:32:13.643Z,17.49
2023-05-19T13:34:47.628Z,17.47
2023-05-19T13:37:21.585Z,17.44
2023-05-19T13:39:55.824Z,17.43
2023-05-19T13:42:29.648Z,17.41
2023-05-19T13:45:03.137Z,17.39
2023-05-19T13:47:36.856Z,17.36
2023-05-19T13:50:11.498Z,17.35
2023-05-19T13:52:45.719Z,17.35
2023-05-19T13:55:19.843Z,17.33
2023-05-19T13:57:54.093Z,17.29
2023-05-19T14:00:28.841Z,17.22
2023-05-19T14:03:02.675Z,17.20
2023-05-19T14:05:37.701Z,17.19
2023-05-19T14:08:12.817Z,17.17
2023-05-19T14:10:47.547Z,17.17
2023-05-19T14:13:32.578Z,17.19
2023-05-19T14:16:10.175Z,17.17
2023-05-19T14:18:44.125Z,17.14
2023-05-19T14:21:18.312Z,17.12
2023-05-19T14:23:51.874Z,17.10
2023-05-19T14:26:28.069Z,17.08
2023-05-19T14:29:04.737Z,17.09
2023-05-19T14:31:39.095Z,17.10
2023-05-19T14:34:13.110Z,17.08
2023-05-19T14:36:47.193Z,17.08
2023-05-19T14:39:21.521Z,17.07
2023-05-19T14:41:56.584Z,17.07
2023-05-19T14:44:34.413Z,17.08
2023-05-19T14:47:11.914Z,17.10
2023-05-19T14:49:46.021Z,17.09
2023-05-19T14:52:20.212Z,17.09
2023-05-19T14:54:53.951Z,17.12
2023-05-19T14:57:28.054Z,17.15
2023-05-19T15:00:02.089Z,17.18
2023-05-19T15:02:35.837Z,17.22
2023-05-19T15:05:12.105Z,17.25
2023-05-19T15:07:49.479Z,17.28
2023-05-19T15:10:24.711Z,17.29
2023-05-19T15:12:59.916Z,17.28
2023-05-19T15:15:34.399Z,17.24
2023-05-19T15:18:08.763Z,17.19
2023-05-19T15:20:42.866Z,17.14
2023-05-19T15:23:16.811Z,17.11
2023-05-19T15:25:51.353Z,17.09
2023-05-19T15:28:27.229Z,17.01
2023-05-19T15:31:00.967Z,16.96
2023-05-19T15:33:34.738Z,16.92
2023-05-19T15:36:09.195Z,16.89
2023-05-19T15:38:42.672Z,16.84
2023-05-19T15:41:16.621Z,16.81
2023-05-19T15:43:50.575Z,16.80
2023-05-19T15:46:24.213Z,16.81
2023-05-19T15:48:58.221Z,16.82
2023-05-19T15:51:32.151Z,16.84
2023-05-19T15:54:05.834Z,16.85
2023-05-19T15:56:39.794Z,16.86
2023-05-19T15:59:13.576Z,16.86
2023-05-19T16:01:47.627Z,16.85
2023-05-19T16:04:21.995Z,16.86
2023-05-19T16:06:55.698Z,16.88
2023-05-19T16:09:29.672Z,16.88
2023-05-19T16:12:03.597Z,16.88
2023-05-19T16:14:38.220Z,16.86
2023-05-19T16:17:14.161Z,16.86
2023-05-19T16:19:48.501Z,16.85
2023-05-19T16:22:25.331Z,16.86
2023-05-19T16:24:58.891Z,16.86
2023-05-19T16:27:33.050Z,16.86
2023-05-19T16:30:07.648Z,16.84
2023-05-19T16:32:41.310Z,16.82
2023-05-19T16:35:15.670Z,16.80
2023-05-19T16:37:49.639Z,16.80
2023-05-19T16:40:23.100Z,16.79
2023-05-19T16:42:57.643Z,16.78
2023-05-19T16:45:31.702Z,16.78
2023-05-19T16:48:05.372Z,16.76
2023-05-19T16:50:40.035Z,16.75
2023-05-19T16:53:13.648Z,16.73
2023-05-19T16:55:47.727Z,16.74
2023-05-19T16:58:21.265Z,16.75
2023-05-19T17:00:58.816Z,16.75
2023-05-19T17:03:32.731Z,16.75
2023-05-19T17:06:06.508Z,16.75
2023-05-19T17:08:40.168Z,16.74
2023-05-19T17:11:14.039Z,16.73
2023-05-19T17:13:47.855Z,16.74
2023-05-19T17:16:22.027Z,16.73
2023-05-19T17:18:56.341Z,16.73
2023-05-19T17:21:29.745Z,16.74
2023-05-19T17:24:03.848Z,16.72
2023-05-19T17:26:37.823Z,16.71
2023-05-19T17:29:11.841Z,16.70
2023-05-19T17:31:45.651Z,16.69
2023-05-19T17:34:19.534Z,16.69
2023-05-19T17:36:53.427Z,16.68
2023-05-19T17:39:27.266Z,16.67
2023-05-19T17:42:01.030Z,16.67
2023-05-19T17:44:35.054Z,16.66
2023-05-19T17:47:08.958Z,16.65
2023-05-19T17:49:43.126Z,16.65
2023-05-19T17:52:19.670Z,16.64
2023-05-19T17:54:54.833Z,16.63
2023-05-19T17:57:31.757Z,16.62
2023-05-19T18:00:06.951Z,16.61
2023-05-19T18:02:44.502Z,16.59
2023-05-19T18:05:21.063Z,16.57
2023-05-19T18:07:55.959Z,16.57
2023-05-19T18:10:32.091Z,16.58
2023-05-19T18:13:06.167Z,16.59
2023-05-19T18:15:40.252Z,16.60
2023-05-19T18:18:14.128Z,16.59
2023-05-19T18:20:48.647Z,16.58
2023-05-19T18:23:22.567Z,16.57
2023-05-19T18:25:56.232Z,16.56
2023-05-19T18:28:30.517Z,16.54
2023-05-19T18:31:05.885Z,16.53
2023-05-19T18:33:39.414Z,16.53
2023-05-19T18:36:13.868Z,16.53
2023-05-19T18:38:48.317Z,16.51
2023-05-19T18:41:22.010Z,16.50
2023-05-19T18:43:56.189Z,16.48
2023-05-19T18:46:30.352Z,16.47
2023-05-19T18:49:04.994Z,16.47
2023-05-19T18:51:38.964Z,16.48
2023-05-19T18:54:12.912Z,16.48
2023-05-19T18:56:46.648Z,16.48
2023-05-19T18:59:20.952Z,16.47
2023-05-19T19:01:55.683Z,16.47
2023-05-19T19:04:30.133Z,16.47
2023-05-19T19:07:04.454Z,16.46
2023-05-19T19:09:37.957Z,16.45
2023-05-19T19:12:12.013Z,16.44
2023-05-19T19:14:46.373Z,16.44
2023-05-19T19:17:20.427Z,16.43
2023-05-19T19:19:54.459Z,16.44
2023-05-19T19:22:28.673Z,16.43
2023-05-19T19:25:02.881Z,16.43
2023-05-19T19:27:36.801Z,16.42
2023-05-19T19:30:13.048Z,16.41
2023-05-19T19:32:47.280Z,16.40
2023-05-19T19:35:21.329Z,16.39
2023-05-19T19:37:55.160Z,16.39
2023-05-19T19:40:29.739Z,16.41
2023-05-19T19:43:03.645Z,16.43
2023-05-19T19:45:39.696Z,16.44
2023-05-19T19:48:14.183Z,16.45
2023-05-19T19:50:53.465Z,16.45
2023-05-19T19:53:27.635Z,16.44
2023-05-19T19:56:02.984Z,16.42
2023-05-19T19:58:36.998Z,16.41
2023-05-19T20:01:10.482Z,16.41
2023-05-19T20:03:44.552Z,16.42
2023-05-19T20:06:18.777Z,16.42
2023-05-19T20:08:52.264Z,16.41
2023-05-19T20:11:27.174Z,16.40
2023-05-19T20:14:00.865Z,16.41
2023-05-19T20:16:34.738Z,16.42
2023-05-19T20:19:09.361Z,16.42
2023-05-19T20:21:43.290Z,16.41
2023-05-19T20:24:17.258Z,16.39
2023-05-19T20:26:50.874Z,16.39
2023-05-19T20:29:24.374Z,16.39
2023-05-19T20:31:58.237Z,16.41
2023-05-19T20:34:32.157Z,16.41
2023-05-19T20:37:06.284Z,16.42
2023-05-19T20:39:40.274Z,16.42
2023-05-19T20:42:14.329Z,16.41
2023-05-19T20:44:48.112Z,16.40
2023-05-19T20:47:21.828Z,16.40
2023-05-19T20:49:55.648Z,16.39
2023-05-19T20:52:29.318Z,16.41
2023-05-19T20:55:03.323Z,16.43
2023-05-19T20:57:37.582Z,16.45
2023-05-19T21:00:13.429Z,16.46
2023-05-19T21:02:47.119Z,16.45
2023-05-19T21:05:21.806Z,16.43
2023-05-19T21:07:55.903Z,16.43
2023-05-19T21:10:30.218Z,16.44
2023-05-19T21:13:04.373Z,16.45
2023-05-19T21:15:37.913Z,16.44
2023-05-19T21:18:12.262Z,16.44
2023-05-19T21:20:46.584Z,16.43
2023-05-19T21:23:20.715Z,16.42
2023-05-19T21:25:55.393Z,16.41
2023-05-19T21:28:29.401Z,16.42
2023-05-19T21:31:02.949Z,16.43
2023-05-19T21:33:37.594Z,16.44
2023-05-19T21:36:11.855Z,16.44
2023-05-19T21:38:45.441Z,16.43
2023-05-19T21:41:19.060Z,16.41
2023-05-19T21:43:52.736Z,16.42
2023-05-19T21:46:28.236Z,16.40
2023-05-19T21:49:01.997Z,16.41
2023-05-19T21:51:36.254Z,16.41
2023-05-19T21:54:10.491Z,16.39
2023-05-19T21:56:44.388Z,16.39
2023-05-19T21:59:18.535Z,16.39
2023-05-19T22:01:52.500Z,16.40
2023-05-19T22:04:27.474Z,16.42
2023-05-19T22:07:01.881Z,16.43
2023-05-19T22:09:35.857Z,16.43
2023-05-19T22:12:11.203Z,16.42
2023-05-19T22:14:45.062Z,16.39
2023-05-19T22:17:18.987Z,16.39
2023-05-19T22:19:52.971Z,16.38
2023-05-19T22:22:27.191Z,16.38
2023-05-19T22:25:00.880Z,16.39
2023-05-19T22:27:34.712Z,16.40
2023-05-19T22:30:10.044Z,16.39
2023-05-19T22:32:44.015Z,16.38
2023-05-19T22:35:18.160Z,16.38
2023-05-19T22:37:51.878Z,16.40
2023-05-19T22:40:25.821Z,16.41
2023-05-19T22:42:59.488Z,16.42
2023-05-19T22:45:33.426Z,16.43
2023-05-19T22:48:08.588Z,16.41
2023-05-19T22:50:42.542Z,16.40
2023-05-19T22:53:16.684Z,16.37
2023-05-19T22:55:50.418Z,16.37
2023-05-19T22:58:24.097Z,16.37
2023-05-19T23:00:57.947Z,16.36
2023-05-19T23:03:31.741Z,16.34
2023-05-19T23:06:05.594Z,16.32
2023-05-19T23:08:39.496Z,16.31
2023-05-19T23:11:13.005Z,16.31
2023-05-19T23:13:47.114Z,16.31
2023-05-19T23:16:21.033Z,16.33
2023-05-19T23:18:58.493Z,16.33
2023-05-19T23:21:42.930Z,16.33
2023-05-19T23:24:16.848Z,16.33
2023-05-19T23:26:51.087Z,16.33
2023-05-19T23:29:25.036Z,16.33
2023-05-19T23:31:58.644Z,16.33
2023-05-19T23:34:32.241Z,16.33
2023-05-19T23:37:06.214Z,16.33
2023-05-19T23:39:40.240Z,16.33
2023-05-19T23:42:14.327Z,16.31
2023-05-19T23:44:47.729Z,16.29
2023-05-19T23:47:21.832Z,16.28
2023-05-19T23:49:55.569Z,16.27
2023-05-19T23:52:29.597Z,16.27
2023-05-19T23:55:03.951Z,16.26
2023-05-19T23:57:38.265Z,16.26
